createdAt,value
2023-02-22T00:01:38.050Z,31.57
2023-02-22T00:03:40.557Z,45.10
2023-02-22T00:05:47.785Z,53.40
2023-02-22T00:07:50.448Z,42.88
2023-02-22T00:09:52.877Z,40.05
2023-02-22T00:11:55.301Z,38.57
2023-02-22T00:13:57.743Z,38.17
2023-02-22T00:16:00.596Z,62.83
2023-02-22T00:18:04.282Z,67.93
2023-02-22T00:20:07.938Z,70.05
2023-02-22T00:22:10.431Z,71.40
2023-02-22T00:24:33.127Z,74.30
2023-02-22T00:26:35.594Z,90.78
2023-02-22T00:28:38.659Z,93.75
2023-02-22T00:30:43.750Z,96.15
2023-02-22T00:32:47.335Z,97.17
2023-02-22T00:34:53.818Z,92.20
2023-02-22T00:36:56.225Z,98.60
2023-02-22T00:38:58.624Z,93.60
2023-02-22T00:41:01.041Z,88.80
2023-02-22T00:43:05.301Z,80.50
2023-02-22T00:45:08.329Z,77.95
2023-02-22T00:47:11.089Z,66.93
2023-02-22T00:49:13.631Z,66.05
2023-02-22T00:51:16.264Z,67.57
2023-02-22T00:53:19.350Z,59.73
2023-02-22T00:55:25.042Z,75.40
2023-02-22T00:57:27.399Z,77.47
2023-02-22T00:59:31.226Z,78.50
2023-02-22T01:01:33.663Z,77.55
2023-02-22T01:03:38.480Z,80.23
2023-02-22T01:05:40.962Z,99.53
2023-02-22T01:07:43.646Z,104.72
2023-02-22T01:09:45.968Z,100.22
2023-02-22T01:11:57.153Z,96.30
2023-02-22T01:14:00.052Z,92.63
2023-02-22T01:16:03.275Z,92.43
2023-02-22T01:18:05.887Z,96.63
2023-02-22T01:20:12.848Z,93.20
2023-02-22T01:22:15.334Z,103.22
2023-02-22T01:24:18.458Z,87.33
2023-02-22T01:26:21.281Z,89.55
2023-02-22T01:28:23.740Z,69.45
2023-02-22T01:30:29.469Z,73.95
2023-02-22T01:32:32.387Z,71.88
2023-02-22T01:34:34.850Z,73.77
2023-02-22T01:36:37.272Z,65.10
2023-02-22T01:38:39.879Z,60.22
2023-02-22T01:40:44.177Z,70.45
2023-02-22T01:42:50.015Z,63.67
2023-02-22T01:45:40.148Z,65.63
2023-02-22T01:47:42.923Z,48.17
2023-02-22T01:49:48.757Z,52.75
2023-02-22T01:51:53.409Z,52.05
2023-02-22T01:54:02.294Z,51.53
2023-02-22T01:56:05.655Z,50.03
2023-02-22T01:58:08.976Z,50.78
2023-02-22T02:00:16.902Z,41.53
2023-02-22T02:02:19.601Z,50.80
2023-02-22T02:04:25.676Z,47.03
2023-02-22T02:06:31.611Z,49.47
2023-02-22T02:09:11.896Z,55.00
2023-02-22T02:11:15.106Z,49.47
2023-02-22T02:13:18.077Z,42.50
2023-02-22T02:15:29.028Z,34.88
2023-02-22T02:17:31.440Z,27.87
2023-02-22T02:19:53.048Z,29.00
2023-02-22T02:22:16.973Z,32.28
2023-02-22T02:24:39.702Z,26.50
2023-02-22T02:27:03.284Z,26.58
2023-02-22T02:29:11.280Z,24.20
2023-02-22T02:31:37.611Z,25.15
2023-02-22T02:33:48.274Z,24.70
2023-02-22T02:36:08.365Z,27.45
2023-02-22T02:38:41.662Z,25.63
2023-02-22T02:41:31.302Z,29.07
2023-02-22T02:43:37.565Z,49.17
2023-02-22T02:45:52.160Z,48.20
2023-02-22T02:47:59.822Z,38.40
2023-02-22T02:50:23.088Z,30.95
2023-02-22T02:52:26.866Z,33.53
2023-02-22T02:54:29.514Z,32.85
2023-02-22T02:56:32.057Z,30.23
2023-02-22T02:58:42.351Z,35.67
2023-02-22T03:00:45.210Z,33.85
2023-02-22T03:02:50.375Z,28.40
2023-02-22T03:05:16.997Z,28.25
2023-02-22T03:07:52.898Z,28.02
2023-02-22T03:10:13.779Z,32.05
2023-02-22T03:12:23.320Z,28.42
2023-02-22T03:14:49.144Z,26.50
2023-02-22T03:17:19.441Z,26.60
2023-02-22T03:19:37.494Z,22.55
2023-02-22T03:22:03.176Z,27.02
2023-02-22T03:24:19.076Z,23.60
2023-02-22T03:26:45.323Z,23.30
2023-02-22T03:28:49.517Z,24.00
2023-02-22T03:30:57.070Z,24.90
2023-02-22T03:33:34.004Z,25.27
2023-02-22T03:35:40.598Z,25.02
2023-02-22T03:37:46.793Z,28.97
2023-02-22T03:39:51.490Z,30.10
2023-02-22T03:41:53.893Z,34.13
2023-02-22T03:44:04.581Z,39.75
2023-02-22T03:46:08.314Z,41.63
2023-02-22T03:48:26.549Z,38.10
2023-02-22T03:50:31.413Z,35.38
2023-02-22T03:52:35.075Z,34.33
2023-02-22T03:54:37.424Z,29.33
2023-02-22T03:57:09.556Z,29.88
2023-02-22T03:59:12.259Z,24.53
2023-02-22T04:01:15.662Z,30.48
2023-02-22T04:03:18.214Z,25.80
2023-02-22T04:05:20.761Z,22.20
2023-02-22T04:07:23.152Z,21.70
2023-02-22T04:09:25.641Z,24.50
2023-02-22T04:11:28.549Z,32.60
2023-02-22T04:13:30.955Z,28.65
2023-02-22T04:15:33.794Z,21.23
2023-02-22T04:17:36.268Z,26.27
2023-02-22T04:19:38.703Z,21.70
2023-02-22T04:21:41.205Z,22.92
2023-02-22T04:23:43.596Z,32.15
2023-02-22T04:25:45.953Z,38.72
2023-02-22T04:27:48.895Z,26.75
2023-02-22T04:29:51.299Z,24.73
2023-02-22T04:31:53.663Z,28.08
2023-02-22T04:33:56.070Z,22.27
2023-02-22T04:35:59.562Z,25.23
2023-02-22T04:38:02.575Z,25.65
2023-02-22T04:40:08.961Z,24.57
2023-02-22T04:42:11.437Z,37.30
2023-02-22T04:44:14.499Z,30.65
2023-02-22T04:46:20.209Z,22.52
2023-02-22T04:48:22.674Z,21.75
2023-02-22T04:50:25.161Z,24.07
2023-02-22T04:52:27.843Z,23.50
2023-02-22T04:54:30.237Z,29.15
2023-02-22T04:56:32.699Z,22.20
2023-02-22T04:58:35.077Z,24.45
2023-02-22T05:00:37.556Z,25.07
2023-02-22T05:02:40.509Z,31.05
2023-02-22T05:04:43.283Z,32.88
2023-02-22T05:06:45.762Z,40.47
2023-02-22T05:08:48.134Z,43.30
2023-02-22T05:10:50.530Z,45.30
2023-02-22T05:12:52.981Z,45.25
2023-02-22T05:14:55.351Z,46.65
2023-02-22T05:16:58.582Z,51.30
2023-02-22T05:19:01.109Z,48.92
2023-02-22T05:21:03.596Z,51.73
2023-02-22T05:23:06.130Z,50.20
2023-02-22T05:25:11.385Z,43.72
2023-02-22T05:27:13.807Z,42.22
2023-02-22T05:29:16.186Z,51.92
2023-02-22T05:31:19.035Z,39.73
2023-02-22T05:33:21.765Z,44.35
2023-02-22T05:35:24.590Z,43.75
2023-02-22T05:37:27.058Z,43.65
2023-02-22T05:39:29.694Z,34.72
2023-02-22T05:41:32.065Z,35.27
2023-02-22T05:43:34.492Z,41.15
2023-02-22T05:45:36.842Z,36.42
2023-02-22T05:47:39.210Z,38.92
2023-02-22T05:49:41.632Z,43.72
2023-02-22T05:51:44.001Z,44.37
2023-02-22T05:53:46.492Z,45.95
2023-02-22T05:55:48.887Z,43.25
2023-02-22T05:57:51.936Z,40.63
2023-02-22T05:59:54.308Z,45.47
2023-02-22T06:01:56.796Z,48.53
2023-02-22T06:03:59.187Z,41.20
2023-02-22T06:06:01.627Z,38.28
2023-02-22T06:08:05.574Z,32.83
2023-02-22T06:10:08.173Z,32.63
2023-02-22T06:12:10.659Z,30.30
2023-02-22T06:14:13.102Z,34.17
2023-02-22T06:16:15.495Z,61.83
2023-02-22T06:18:17.957Z,35.42
2023-02-22T06:20:22.983Z,29.80
2023-02-22T06:22:25.498Z,28.00
2023-02-22T06:24:27.964Z,21.80
2023-02-22T06:26:30.475Z,25.70
2023-02-22T06:28:32.870Z,36.72
2023-02-22T06:30:35.416Z,59.28
2023-02-22T06:32:37.965Z,32.03
2023-02-22T06:34:41.118Z,39.70
2023-02-22T06:36:43.662Z,29.60
2023-02-22T06:38:46.040Z,21.38
2023-02-22T06:40:48.446Z,25.55
2023-02-22T06:42:50.869Z,32.90
2023-02-22T06:44:53.328Z,30.60
2023-02-22T06:46:56.361Z,27.38
2023-02-22T06:48:59.671Z,30.40
2023-02-22T06:51:02.076Z,31.17
2023-02-22T06:53:04.763Z,29.77
2023-02-22T06:55:07.354Z,32.38
2023-02-22T06:57:10.309Z,21.67
2023-02-22T06:59:12.753Z,21.48
2023-02-22T07:01:15.415Z,26.40
2023-02-22T07:03:18.129Z,24.83
2023-02-22T07:05:22.363Z,28.42
2023-02-22T07:07:25.377Z,26.35
2023-02-22T07:09:27.860Z,34.92
2023-02-22T07:11:30.231Z,41.67
2023-02-22T07:13:32.619Z,27.83
2023-02-22T07:15:36.017Z,28.33
2023-02-22T07:17:41.265Z,25.40
2023-02-22T07:19:43.601Z,37.25
2023-02-22T07:21:48.018Z,35.05
2023-02-22T07:23:54.505Z,32.53
2023-02-22T07:25:59.589Z,24.80
2023-02-22T07:28:02.054Z,26.58
2023-02-22T07:30:08.769Z,29.05
2023-02-22T07:32:11.550Z,34.55
2023-02-22T07:34:14.460Z,25.33
2023-02-22T07:36:18.039Z,33.38
2023-02-22T07:38:21.269Z,30.25
2023-02-22T07:40:24.883Z,27.50
2023-02-22T07:42:27.300Z,43.05
2023-02-22T07:44:32.440Z,35.50
2023-02-22T07:46:34.866Z,36.72
2023-02-22T07:48:37.232Z,35.53
2023-02-22T07:50:39.881Z,35.85
2023-02-22T07:52:46.834Z,41.22
2023-02-22T07:54:49.172Z,35.97
2023-02-22T07:56:51.593Z,37.20
2023-02-22T07:58:53.973Z,39.20
2023-02-22T08:00:56.510Z,42.53
2023-02-22T08:03:00.638Z,41.80
2023-02-22T08:05:03.018Z,50.30
2023-02-22T08:07:05.391Z,38.70
2023-02-22T08:09:07.814Z,44.05
2023-02-22T08:11:10.278Z,37.38
2023-02-22T08:13:12.995Z,34.75
2023-02-22T08:15:25.570Z,29.40
2023-02-22T08:17:27.980Z,38.05
2023-02-22T08:19:30.375Z,38.90
2023-02-22T08:21:32.911Z,37.20
2023-02-22T08:23:35.389Z,32.13
2023-02-22T08:25:37.800Z,33.90
2023-02-22T08:27:40.198Z,33.42
2023-02-22T08:29:42.578Z,30.85
2023-02-22T08:31:52.008Z,39.30
2023-02-22T08:33:54.509Z,30.27
2023-02-22T08:35:56.959Z,30.97
2023-02-22T08:38:05.278Z,30.17
2023-02-22T08:40:08.226Z,27.85
2023-02-22T08:42:11.054Z,28.45
2023-02-22T08:44:13.604Z,25.27
2023-02-22T08:46:17.665Z,24.20
2023-02-22T08:48:20.707Z,23.10
2023-02-22T08:50:28.780Z,23.27
2023-02-22T08:52:31.177Z,22.98
2023-02-22T08:54:33.585Z,24.88
2023-02-22T08:56:35.978Z,29.50
2023-02-22T08:58:38.407Z,25.83
2023-02-22T09:00:41.520Z,28.05
2023-02-22T09:02:44.086Z,26.70
2023-02-22T09:04:46.570Z,26.45
2023-02-22T09:06:51.894Z,25.53
2023-02-22T09:08:54.466Z,32.70
2023-02-22T09:10:56.868Z,27.85
2023-02-22T09:13:04.110Z,26.17
2023-02-22T09:15:06.698Z,28.23
2023-02-22T09:17:09.144Z,41.57
2023-02-22T09:19:11.738Z,27.42
2023-02-22T09:21:14.524Z,30.58
2023-02-22T09:23:17.106Z,31.05
2023-02-22T09:25:22.800Z,29.70
2023-02-22T09:27:28.272Z,29.50
2023-02-22T09:29:31.290Z,25.70
2023-02-22T09:31:36.774Z,26.65
2023-02-22T09:33:39.355Z,27.45
2023-02-22T09:35:46.531Z,29.63
2023-02-22T09:37:49.082Z,28.83
2023-02-22T09:39:51.642Z,30.13
2023-02-22T09:42:11.371Z,28.52
2023-02-22T09:44:30.330Z,29.23
2023-02-22T09:46:38.532Z,26.45
2023-02-22T09:48:57.977Z,29.43
2023-02-22T09:51:02.950Z,26.05
2023-02-22T09:53:17.947Z,25.25
2023-02-22T09:55:34.237Z,22.17
2023-02-22T09:57:40.753Z,22.45
2023-02-22T10:00:14.643Z,21.67
2023-02-22T10:02:24.606Z,24.67
2023-02-22T10:04:49.067Z,23.40
2023-02-22T10:07:12.309Z,21.90
2023-02-22T10:09:15.694Z,23.35
2023-02-22T10:11:39.157Z,18.83
2023-02-22T10:13:52.794Z,17.08
2023-02-22T10:16:16.907Z,15.88
2023-02-22T10:18:50.614Z,17.05
2023-02-22T10:21:10.768Z,15.13
2023-02-22T10:23:16.342Z,19.03
2023-02-22T10:25:27.823Z,16.80
2023-02-22T10:27:34.555Z,15.02
2023-02-22T10:29:46.659Z,12.88
2023-02-22T10:31:57.135Z,12.25
2023-02-22T10:34:02.822Z,12.47
2023-02-22T10:36:06.316Z,11.05
2023-02-22T10:38:23.608Z,9.57
2023-02-22T10:40:32.238Z,8.50
2023-02-22T10:42:34.707Z,9.65
2023-02-22T10:44:38.705Z,11.87
2023-02-22T10:46:42.895Z,10.70
2023-02-22T10:48:47.665Z,12.13
2023-02-22T10:50:50.662Z,9.90
2023-02-22T10:52:55.252Z,9.63
2023-02-22T10:55:14.220Z,9.17
2023-02-22T10:57:21.592Z,11.13
2023-02-22T10:59:52.070Z,7.90
2023-02-22T11:01:54.543Z,11.65
2023-02-22T11:04:02.678Z,8.30
2023-02-22T11:06:20.108Z,9.23
2023-02-22T11:08:24.073Z,7.75
2023-02-22T11:10:38.775Z,11.27
2023-02-22T11:12:45.639Z,10.35
2023-02-22T11:14:48.325Z,8.38
2023-02-22T11:16:57.089Z,9.53
2023-02-22T11:19:12.692Z,6.72
2023-02-22T11:21:22.812Z,7.80
2023-02-22T11:23:28.008Z,11.48
2023-02-22T11:25:38.840Z,9.80
2023-02-22T11:27:43.913Z,10.73
2023-02-22T11:29:50.910Z,7.20
2023-02-22T11:31:54.232Z,6.63
2023-02-22T11:34:02.107Z,7.75
2023-02-22T11:36:08.900Z,8.13
2023-02-22T11:38:32.457Z,9.40
2023-02-22T11:40:35.471Z,8.65
2023-02-22T11:42:37.904Z,7.70
2023-02-22T11:44:44.001Z,9.18
2023-02-22T11:46:46.644Z,6.50
2023-02-22T11:48:59.526Z,9.93
2023-02-22T11:51:45.567Z,9.45
2023-02-22T11:53:54.393Z,9.65
2023-02-22T11:56:08.232Z,9.57
2023-02-22T11:58:33.747Z,8.32
2023-02-22T12:00:57.304Z,9.77
2023-02-22T12:03:02.422Z,11.45
2023-02-22T12:05:18.579Z,9.00
2023-02-22T12:07:38.255Z,7.88
2023-02-22T12:09:55.617Z,8.38
2023-02-22T12:12:01.857Z,9.80
2023-02-22T12:14:34.835Z,8.38
2023-02-22T12:16:54.612Z,6.85
2023-02-22T12:19:19.281Z,9.27
2023-02-22T12:21:22.959Z,6.50
2023-02-22T12:23:50.809Z,6.00
2023-02-22T12:26:20.760Z,6.63
2023-02-22T12:28:39.541Z,7.32
2023-02-22T12:30:44.583Z,7.28
2023-02-22T12:33:05.981Z,5.35
2023-02-22T12:35:34.934Z,6.60
2023-02-22T12:37:58.956Z,6.25
2023-02-22T12:40:31.422Z,9.02
2023-02-22T12:42:58.374Z,7.90
2023-02-22T12:45:17.003Z,6.18
2023-02-22T12:47:24.746Z,6.20
2023-02-22T12:49:55.736Z,8.63
2023-02-22T12:52:22.329Z,5.93
2023-02-22T12:55:04.473Z,7.30
2023-02-22T12:57:17.225Z,6.55
2023-02-22T12:59:29.820Z,6.00
2023-02-22T13:01:44.575Z,7.88
2023-02-22T13:03:47.294Z,6.75
2023-02-22T13:06:00.540Z,6.07
2023-02-22T13:08:30.027Z,6.88
2023-02-22T13:11:02.020Z,8.30
2023-02-22T13:13:24.683Z,7.70
2023-02-22T13:15:29.824Z,9.18
2023-02-22T13:18:01.653Z,7.85
2023-02-22T13:20:41.914Z,6.72
2023-02-22T13:23:17.691Z,5.80
2023-02-22T13:25:25.656Z,11.25
2023-02-22T13:28:06.814Z,6.32
2023-02-22T13:30:53.448Z,5.93
2023-02-22T13:32:55.835Z,5.63
2023-02-22T13:35:16.613Z,5.07
2023-02-22T13:37:48.639Z,5.75
2023-02-22T13:39:55.619Z,6.68
2023-02-22T13:42:09.619Z,7.10
2023-02-22T13:44:39.839Z,8.82
2023-02-22T13:46:57.151Z,8.70
2023-02-22T13:49:20.403Z,9.73
2023-02-22T13:51:41.027Z,8.60
2023-02-22T13:53:50.673Z,8.95
2023-02-22T13:55:58.645Z,8.38
2023-02-22T13:58:12.197Z,8.33
2023-02-22T14:00:21.045Z,8.50
2023-02-22T14:02:54.152Z,8.25
2023-02-22T14:04:56.641Z,7.05
2023-02-22T14:07:21.850Z,7.30
2023-02-22T14:09:56.070Z,9.57
2023-02-22T14:11:59.396Z,6.25
2023-02-22T14:14:01.698Z,9.23
2023-02-22T14:16:13.094Z,7.20
2023-02-22T14:18:18.187Z,6.85
2023-02-22T14:20:30.402Z,8.80
2023-02-22T14:22:33.106Z,10.43
2023-02-22T14:24:47.080Z,6.10
2023-02-22T14:27:04.409Z,5.93
2023-02-22T14:29:09.295Z,8.25
2023-02-22T14:31:29.337Z,9.50
2023-02-22T14:34:00.338Z,7.40
2023-02-22T14:36:04.373Z,7.20
2023-02-22T14:38:14.513Z,8.27
2023-02-22T14:40:31.233Z,9.27
2023-02-22T14:42:38.401Z,8.90
2023-02-22T14:45:14.116Z,8.48
2023-02-22T14:47:31.196Z,9.70
2023-02-22T14:49:40.425Z,6.88
2023-02-22T14:51:49.010Z,7.97
2023-02-22T14:54:01.405Z,8.63
2023-02-22T14:56:07.840Z,5.68
2023-02-22T14:58:22.249Z,9.77
2023-02-22T15:00:33.350Z,9.45
2023-02-22T15:02:41.620Z,10.05
2023-02-22T15:04:54.295Z,10.57
2023-02-22T15:06:58.953Z,9.13
2023-02-22T15:09:34.769Z,11.50
2023-02-22T15:11:37.433Z,10.43
2023-02-22T15:13:50.924Z,12.35
2023-02-22T15:16:08.091Z,8.97
2023-02-22T15:18:35.753Z,11.15
2023-02-22T15:20:38.482Z,9.93
2023-02-22T15:22:41.037Z,9.55
2023-02-22T15:24:43.489Z,7.35
2023-02-22T15:27:00.325Z,8.93
2023-02-22T15:29:07.866Z,7.93
2023-02-22T15:31:47.787Z,7.80
2023-02-22T15:33:55.462Z,9.63
2023-02-22T15:35:59.572Z,10.48
2023-02-22T15:38:06.651Z,8.17
2023-02-22T15:40:14.886Z,9.18
2023-02-22T15:42:23.882Z,8.80
2023-02-22T15:44:26.328Z,12.88
2023-02-22T15:46:29.053Z,6.43
2023-02-22T15:48:33.235Z,13.17
2023-02-22T15:50:36.050Z,12.52
2023-02-22T15:52:38.444Z,14.07
2023-02-22T15:54:43.815Z,12.43
2023-02-22T15:56:55.555Z,12.35
2023-02-22T15:59:13.022Z,11.57
2023-02-22T16:01:19.265Z,15.07
2023-02-22T16:03:33.260Z,31.45
2023-02-22T16:05:40.277Z,30.98
2023-02-22T16:07:47.660Z,20.73
2023-02-22T16:09:51.027Z,18.67
2023-02-22T16:12:10.034Z,21.50
2023-02-22T16:14:28.814Z,28.25
2023-02-22T16:16:41.799Z,21.25
2023-02-22T16:18:44.471Z,18.00
2023-02-22T16:20:47.176Z,19.23
2023-02-22T16:22:51.008Z,15.90
2023-02-22T16:24:54.620Z,13.63
2023-02-22T16:27:16.396Z,13.18
2023-02-22T16:29:26.325Z,16.90
2023-02-22T16:31:33.946Z,22.83
2023-02-22T16:33:38.722Z,21.85
2023-02-22T16:35:51.739Z,19.33
2023-02-22T16:38:03.194Z,15.80
2023-02-22T16:40:14.009Z,13.77
2023-02-22T16:42:20.187Z,16.90
2023-02-22T16:44:25.184Z,18.58
2023-02-22T16:46:27.647Z,17.38
2023-02-22T16:48:32.844Z,16.45
2023-02-22T16:50:35.286Z,16.85
2023-02-22T16:52:40.219Z,22.70
2023-02-22T16:54:45.340Z,23.08
2023-02-22T16:56:47.710Z,22.30
2023-02-22T16:58:51.069Z,24.17
2023-02-22T17:00:54.115Z,25.63
2023-02-22T17:02:59.764Z,23.13
2023-02-22T17:05:02.560Z,18.70
2023-02-22T17:07:05.480Z,35.10
2023-02-22T17:09:08.140Z,55.08
2023-02-22T17:11:12.511Z,26.02
2023-02-22T17:13:23.606Z,26.13
2023-02-22T17:15:30.129Z,33.35
2023-02-22T17:17:38.168Z,28.02
2023-02-22T17:19:40.675Z,24.60
2023-02-22T17:21:43.186Z,19.05
2023-02-22T17:23:48.707Z,17.07
2023-02-22T17:26:04.321Z,20.33
2023-02-22T17:28:07.946Z,21.50
2023-02-22T17:30:13.630Z,28.35
2023-02-22T17:32:16.160Z,24.95
2023-02-22T17:34:18.579Z,26.37
2023-02-22T17:36:21.117Z,158.85
2023-02-22T17:38:23.623Z,137.85
2023-02-22T17:40:26.632Z,60.03
2023-02-22T17:42:29.050Z,77.53
2023-02-22T17:44:31.853Z,76.03
2023-02-22T17:46:35.281Z,70.35
2023-02-22T17:48:39.005Z,103.32
2023-02-22T17:50:42.870Z,71.20
2023-02-22T17:52:45.443Z,59.03
2023-02-22T17:54:47.838Z,63.90
2023-02-22T17:56:50.313Z,63.03
2023-02-22T17:58:54.801Z,76.68
2023-02-22T18:00:59.438Z,70.43
2023-02-22T18:03:04.817Z,71.47
2023-02-22T18:05:08.509Z,59.43
2023-02-22T18:07:10.905Z,62.88
2023-02-22T18:09:17.777Z,77.57
2023-02-22T18:11:21.078Z,78.13
2023-02-22T18:13:25.418Z,67.60
2023-02-22T18:15:28.508Z,74.03
2023-02-22T18:17:31.210Z,88.05
2023-02-22T18:19:33.658Z,83.68
2023-02-22T18:21:36.161Z,88.60
2023-02-22T18:23:38.728Z,76.38
2023-02-22T18:25:50.350Z,74.87
2023-02-22T18:27:57.329Z,73.30
2023-02-22T18:29:59.776Z,78.22
2023-02-22T18:32:02.164Z,120.80
2023-02-22T18:34:04.674Z,127.80
2023-02-22T18:36:07.708Z,137.93
2023-02-22T18:38:14.402Z,109.70
2023-02-22T18:40:19.003Z,97.03
2023-02-22T18:42:25.309Z,83.43
2023-02-22T18:44:27.792Z,86.10
2023-02-22T18:46:30.628Z,78.40
2023-02-22T18:48:33.267Z,68.15
2023-02-22T18:50:35.842Z,54.50
2023-02-22T18:52:44.934Z,61.53
2023-02-22T18:54:47.474Z,50.22
2023-02-22T18:56:49.914Z,39.90
2023-02-22T18:58:59.377Z,38.92
2023-02-22T19:01:02.914Z,46.97
2023-02-22T19:03:06.009Z,55.65
2023-02-22T19:05:10.003Z,93.60
2023-02-22T19:07:18.291Z,89.03
2023-02-22T19:09:20.735Z,97.10
2023-02-22T19:11:24.957Z,88.47
2023-02-22T19:13:27.386Z,84.60
2023-02-22T19:15:29.823Z,59.60
2023-02-22T19:17:32.719Z,77.40
2023-02-22T19:19:35.594Z,62.28
2023-02-22T19:21:38.125Z,64.78
2023-02-22T19:23:45.624Z,66.32
2023-02-22T19:25:48.255Z,65.40
2023-02-22T19:27:50.685Z,77.50
2023-02-22T19:29:53.131Z,105.70
2023-02-22T19:31:55.557Z,116.47
2023-02-22T19:34:09.603Z,113.30
2023-02-22T19:36:15.554Z,111.32
2023-02-22T19:38:18.152Z,113.83
2023-02-22T19:40:22.076Z,99.05
2023-02-22T19:42:24.439Z,88.50
2023-02-22T19:44:28.126Z,69.20
2023-02-22T19:46:30.618Z,55.10
2023-02-22T19:48:33.518Z,50.53
2023-02-22T19:50:36.042Z,53.70
2023-02-22T19:52:39.181Z,60.30
2023-02-22T19:54:41.617Z,72.13
2023-02-22T19:56:44.090Z,70.75
2023-02-22T19:58:49.785Z,73.27
2023-02-22T20:00:52.218Z,77.03
2023-02-22T20:03:05.857Z,59.97
2023-02-22T20:05:12.907Z,46.40
2023-02-22T20:07:15.318Z,43.13
2023-02-22T20:09:19.553Z,44.10
2023-02-22T20:11:22.966Z,43.85
2023-02-22T20:13:25.391Z,47.40
2023-02-22T20:15:28.147Z,37.92
2023-02-22T20:17:30.595Z,41.75
2023-02-22T20:19:33.070Z,47.97
2023-02-22T20:21:38.847Z,71.40
2023-02-22T20:23:44.343Z,78.57
2023-02-22T20:25:56.338Z,110.15
2023-02-22T20:27:58.850Z,111.50
2023-02-22T20:30:01.294Z,97.30
2023-02-22T20:32:05.691Z,85.65
2023-02-22T20:34:09.806Z,41.92
2023-02-22T20:36:14.961Z,100.43
2023-02-22T20:38:19.328Z,104.75
2023-02-22T20:40:21.746Z,100.77
2023-02-22T20:42:24.154Z,115.32
2023-02-22T20:44:26.649Z,121.72
2023-02-22T20:46:37.528Z,128.50
2023-02-22T20:48:40.009Z,65.25
2023-02-22T20:50:42.610Z,76.40
2023-02-22T20:52:45.305Z,87.00
2023-02-22T20:54:47.872Z,110.47
2023-02-22T20:56:52.683Z,147.18
2023-02-22T20:58:57.832Z,148.40
2023-02-22T21:01:08.043Z,143.57
2023-02-22T21:03:10.500Z,139.93
2023-02-22T21:05:13.347Z,136.18
2023-02-22T21:07:15.768Z,135.18
2023-02-22T21:09:20.425Z,141.65
2023-02-22T21:11:24.849Z,133.20
2023-02-22T21:13:27.692Z,131.80
2023-02-22T21:15:30.294Z,140.93
2023-02-22T21:17:32.940Z,113.80
2023-02-22T21:19:36.222Z,78.75
2023-02-22T21:21:38.664Z,78.20
2023-02-22T21:23:42.076Z,85.93
2023-02-22T21:25:51.827Z,66.70
2023-02-22T21:27:54.322Z,78.70
2023-02-22T21:29:58.650Z,71.32
2023-02-22T21:32:01.453Z,54.43
2023-02-22T21:34:04.366Z,50.47
2023-02-22T21:36:11.357Z,60.63
2023-02-22T21:38:14.585Z,41.20
2023-02-22T21:40:20.316Z,37.03
2023-02-22T21:42:22.826Z,37.60
2023-02-22T21:44:25.190Z,41.15
2023-02-22T21:46:29.437Z,37.08
2023-02-22T21:48:31.976Z,42.28
2023-02-22T21:50:37.816Z,48.22
2023-02-22T21:52:40.321Z,45.00
2023-02-22T21:54:42.924Z,52.28
2023-02-22T21:56:45.285Z,51.47
2023-02-22T21:58:50.445Z,52.58
2023-02-22T22:00:52.899Z,49.10
2023-02-22T22:03:01.078Z,56.93
2023-02-22T22:05:03.513Z,58.30
2023-02-22T22:07:05.970Z,65.90
2023-02-22T22:09:18.256Z,67.78
2023-02-22T22:11:21.679Z,65.05
2023-02-22T22:13:25.538Z,56.60
2023-02-22T22:15:30.218Z,58.72
2023-02-22T22:17:33.104Z,57.85
2023-02-22T22:19:40.516Z,62.53
2023-02-22T22:21:43.397Z,49.80
2023-02-22T22:23:47.446Z,62.37
2023-02-22T22:25:51.327Z,59.95
2023-02-22T22:27:53.765Z,62.67
2023-02-22T22:29:57.463Z,67.15
2023-02-22T22:31:59.917Z,57.65
2023-02-22T22:34:02.394Z,46.20
2023-02-22T22:36:06.116Z,51.83
2023-02-22T22:38:09.554Z,53.90
2023-02-22T22:40:15.853Z,48.50
2023-02-22T22:42:18.932Z,79.05
2023-02-22T22:44:24.261Z,72.20
2023-02-22T22:46:26.657Z,71.10
2023-02-22T22:48:31.544Z,53.10
2023-02-22T22:50:34.161Z,65.05
2023-02-22T22:52:37.686Z,69.63
2023-02-22T22:54:40.793Z,64.80
2023-02-22T22:56:43.173Z,59.17
2023-02-22T22:58:51.475Z,55.05
2023-02-22T23:00:59.765Z,58.92
2023-02-22T23:03:02.216Z,50.40
2023-02-22T23:05:04.834Z,49.80
2023-02-22T23:07:07.302Z,45.03
2023-02-22T23:09:18.510Z,51.13
2023-02-22T23:11:21.073Z,53.08
2023-02-22T23:13:25.041Z,53.88
2023-02-22T23:15:27.523Z,58.30
2023-02-22T23:17:41.218Z,65.03
2023-02-22T23:19:45.186Z,54.88
2023-02-22T23:21:49.235Z,54.75
2023-02-22T23:24:00.378Z,58.10
2023-02-22T23:26:18.027Z,59.03
2023-02-22T23:28:23.784Z,57.65
2023-02-22T23:30:27.203Z,60.13
2023-02-22T23:32:29.686Z,58.95
2023-02-22T23:34:32.658Z,53.08
2023-02-22T23:36:35.057Z,54.90
2023-02-22T23:38:37.425Z,55.10
2023-02-22T23:40:39.809Z,60.85
2023-02-22T23:42:43.402Z,61.75
2023-02-22T23:44:46.243Z,61.78
2023-02-22T23:46:49.600Z,61.63
2023-02-22T23:48:54.662Z,55.85
2023-02-22T23:51:00.323Z,79.45
2023-02-22T23:53:03.717Z,107.78
2023-02-22T23:55:06.614Z,93.03
2023-02-22T23:57:09.504Z,85.60
2023-02-22T23:59:12.596Z,106.70
